createdAt,value
2018-01-03T00:01:11.958Z,8.94
2018-01-03T00:02:11.913Z,8.94
2018-01-03T00:04:04.743Z,9.04
2018-01-03T00:05:04.722Z,8.92
2018-01-03T00:06:57.566Z,9.00
2018-01-03T00:07:57.527Z,8.99
2018-01-03T00:09:50.355Z,9.03
2018-01-03T00:10:50.332Z,8.95
2018-01-03T00:12:43.179Z,9.00
2018-01-03T00:13:43.147Z,8.99
2018-01-03T00:15:35.968Z,9.11
2018-01-03T00:16:35.953Z,8.97
2018-01-03T00:18:28.789Z,9.14
2018-01-03T00:19:28.749Z,9.14
2018-01-03T00:21:21.575Z,9.22
2018-01-03T00:22:21.552Z,9.16
2018-01-03T00:24:14.396Z,9.19
2018-01-03T00:25:14.353Z,9.19
2018-01-03T00:27:07.185Z,9.18
2018-01-03T00:28:07.156Z,9.16
2018-01-03T00:29:59.999Z,9.19
2018-01-03T00:30:59.961Z,9.23
2018-01-03T00:32:52.785Z,9.19
2018-01-03T00:33:52.764Z,9.29
2018-01-03T00:35:45.606Z,9.29
2018-01-03T00:36:45.567Z,9.31
2018-01-03T00:38:38.388Z,9.25
2018-01-03T00:39:38.370Z,9.26
2018-01-03T00:41:31.212Z,9.40
2018-01-03T00:42:31.172Z,9.44
2018-01-03T00:44:24.000Z,9.34
2018-01-03T00:45:23.977Z,9.29
2018-01-03T00:47:16.832Z,9.37
2018-01-03T00:48:16.781Z,9.28
2018-01-03T00:50:09.608Z,9.40
2018-01-03T00:51:09.583Z,9.40
2018-01-03T00:53:02.430Z,9.41
2018-01-03T00:54:02.388Z,9.44
2018-01-03T00:55:55.215Z,9.41
2018-01-03T00:56:55.195Z,9.48
2018-01-03T00:58:48.039Z,9.58
2018-01-03T00:59:48.002Z,9.56
2018-01-03T01:01:40.829Z,9.58
2018-01-03T01:02:40.811Z,9.55
2018-01-03T01:04:33.650Z,9.65
2018-01-03T01:05:33.610Z,9.59
2018-01-03T01:07:26.449Z,9.58
2018-01-03T01:08:26.417Z,9.66
2018-01-03T01:10:19.267Z,9.62
2018-01-03T01:11:19.232Z,9.64
2018-01-03T01:13:12.056Z,9.76
2018-01-03T01:14:12.033Z,9.76
2018-01-03T01:16:04.878Z,9.72
2018-01-03T01:17:04.841Z,9.74
2018-01-03T01:18:57.669Z,9.86
2018-01-03T01:19:57.644Z,9.86
2018-01-03T01:21:50.494Z,9.86
2018-01-03T01:22:50.453Z,9.94
2018-01-03T01:24:43.282Z,9.83
2018-01-03T01:25:43.261Z,9.92
2018-01-03T01:27:36.146Z,9.98
2018-01-03T01:28:36.102Z,9.95
2018-01-03T01:30:28.931Z,9.97
2018-01-03T01:31:28.907Z,9.98
2018-01-03T01:33:21.752Z,10.05
2018-01-03T01:34:21.715Z,10.13
2018-01-03T01:36:14.543Z,10.15
2018-01-03T01:37:14.515Z,10.10
2018-01-03T01:39:07.373Z,10.19
2018-01-03T01:40:07.325Z,10.31
2018-01-03T01:42:00.156Z,10.26
2018-01-03T01:43:00.141Z,10.33
2018-01-03T01:44:52.978Z,10.41
2018-01-03T01:45:52.940Z,10.41
2018-01-03T01:47:45.769Z,10.44
2018-01-03T01:48:45.748Z,10.49
2018-01-03T01:50:38.587Z,10.38
2018-01-03T01:51:38.549Z,10.40
2018-01-03T01:53:31.376Z,10.49
2018-01-03T01:54:31.358Z,10.49
2018-01-03T01:56:24.202Z,10.44
2018-01-03T01:57:24.163Z,10.40
2018-01-03T01:59:16.995Z,10.48
2018-01-03T02:00:16.973Z,10.57
2018-01-03T02:02:09.816Z,10.54
2018-01-03T02:03:09.772Z,10.54
2018-01-03T02:05:02.611Z,10.53
2018-01-03T02:06:02.591Z,10.63
2018-01-03T02:07:55.436Z,10.54
2018-01-03T02:08:55.395Z,10.57
2018-01-03T02:10:48.222Z,10.61
2018-01-03T02:11:48.202Z,10.63
2018-01-03T02:13:41.052Z,10.69
2018-01-03T02:14:41.005Z,10.72
2018-01-03T02:16:33.837Z,10.75
2018-01-03T02:17:33.817Z,10.86
2018-01-03T02:19:26.663Z,10.82
2018-01-03T02:20:26.631Z,10.89
2018-01-03T02:22:19.457Z,10.92
2018-01-03T02:23:19.436Z,10.93
2018-01-03T02:25:12.281Z,10.90
2018-01-03T02:26:12.240Z,10.79
2018-01-03T02:28:05.069Z,10.84
2018-01-03T02:29:05.045Z,10.90
2018-01-03T02:30:57.891Z,10.84
2018-01-03T02:31:57.855Z,10.90
2018-01-03T02:33:50.687Z,10.90
2018-01-03T02:34:50.663Z,10.92
2018-01-03T02:36:43.510Z,10.97
2018-01-03T02:37:43.467Z,10.97
2018-01-03T02:39:36.301Z,10.94
2018-01-03T02:40:36.282Z,10.94
2018-01-03T02:42:29.123Z,11.07
2018-01-03T02:43:29.084Z,11.12
2018-01-03T02:45:21.918Z,11.12
2018-01-03T02:46:21.896Z,11.29
2018-01-03T02:48:14.742Z,11.23
2018-01-03T02:49:14.705Z,11.19
2018-01-03T02:51:07.538Z,11.23
2018-01-03T02:52:07.514Z,11.29
2018-01-03T02:54:00.361Z,11.33
2018-01-03T02:55:00.325Z,11.25
2018-01-03T02:56:53.152Z,11.30
2018-01-03T02:57:53.131Z,11.29
2018-01-03T02:59:45.978Z,11.30
2018-01-03T03:00:45.936Z,11.32
2018-01-03T03:02:38.764Z,11.44
2018-01-03T03:03:38.748Z,11.44
2018-01-03T03:05:31.600Z,11.44
2018-01-03T03:06:31.562Z,11.43
2018-01-03T03:08:24.385Z,11.48
2018-01-03T03:09:24.368Z,11.52
2018-01-03T03:11:17.217Z,11.45
2018-01-03T03:12:17.178Z,11.50
2018-01-03T03:14:10.009Z,11.48
2018-01-03T03:15:09.985Z,11.48
2018-01-03T03:17:02.842Z,11.47
2018-01-03T03:18:02.792Z,11.48
2018-01-03T03:19:55.624Z,11.51
2018-01-03T03:20:55.607Z,11.44
2018-01-03T03:22:48.445Z,11.45
2018-01-03T03:23:48.411Z,11.47
2018-01-03T03:25:41.248Z,11.45
2018-01-03T03:26:41.229Z,11.54
2018-01-03T03:28:34.077Z,11.47
2018-01-03T03:29:34.037Z,11.57
2018-01-03T03:31:26.865Z,11.62
2018-01-03T03:32:26.846Z,11.51
2018-01-03T03:34:19.690Z,11.50
2018-01-03T03:35:19.650Z,11.51
2018-01-03T03:37:12.479Z,11.69
2018-01-03T03:38:12.458Z,11.59
2018-01-03T03:40:05.306Z,11.75
2018-01-03T03:41:05.270Z,11.73
2018-01-03T03:42:58.100Z,11.83
2018-01-03T03:43:58.081Z,11.83
2018-01-03T03:45:50.931Z,11.95
2018-01-03T03:46:50.889Z,11.97
2018-01-03T03:48:43.726Z,11.97
2018-01-03T03:49:43.706Z,11.91
2018-01-03T03:51:36.545Z,12.02
2018-01-03T03:52:36.511Z,11.99
2018-01-03T03:54:29.341Z,11.91
2018-01-03T03:55:29.319Z,12.02
2018-01-03T03:57:22.161Z,12.07
2018-01-03T03:58:22.128Z,11.95
2018-01-03T04:00:14.961Z,12.12
2018-01-03T04:01:14.934Z,12.02
2018-01-03T04:03:07.782Z,12.18
2018-01-03T04:04:07.742Z,12.20
2018-01-03T04:06:00.576Z,12.21
2018-01-03T04:07:00.557Z,12.24
2018-01-03T04:08:53.410Z,12.25
2018-01-03T04:09:53.364Z,12.25
2018-01-03T04:11:46.188Z,12.39
2018-01-03T04:12:46.168Z,12.29
2018-01-03T04:14:39.023Z,12.31
2018-01-03T04:15:38.983Z,12.29
2018-01-03T04:17:31.816Z,12.42
2018-01-03T04:18:31.789Z,12.36
2018-01-03T04:20:24.635Z,12.45
2018-01-03T04:21:24.629Z,12.43
2018-01-03T04:23:17.430Z,12.46
2018-01-03T04:24:17.406Z,12.46
2018-01-03T04:26:10.251Z,12.57
2018-01-03T04:27:10.215Z,12.50
2018-01-03T04:29:03.054Z,12.54
2018-01-03T04:30:03.028Z,12.45
2018-01-03T04:31:55.876Z,12.49
2018-01-03T04:32:55.837Z,12.46
2018-01-03T04:34:48.665Z,12.45
2018-01-03T04:35:48.644Z,12.49
2018-01-03T04:37:41.499Z,12.60
2018-01-03T04:38:41.462Z,12.67
2018-01-03T04:40:34.392Z,12.67
2018-01-03T04:41:34.266Z,12.72
2018-01-03T04:43:27.127Z,12.82
2018-01-03T04:44:27.075Z,12.85
2018-01-03T04:46:19.915Z,12.70
2018-01-03T04:47:19.888Z,12.50
2018-01-03T04:49:12.741Z,12.29
2018-01-03T04:50:12.694Z,12.20
2018-01-03T04:52:05.529Z,12.18
2018-01-03T04:53:05.507Z,12.22
2018-01-03T04:54:58.356Z,12.15
2018-01-03T04:55:58.314Z,12.04
2018-01-03T04:57:51.144Z,11.94
2018-01-03T04:58:51.123Z,11.83
2018-01-03T05:00:43.970Z,11.73
2018-01-03T05:01:43.936Z,11.80
2018-01-03T05:03:36.770Z,11.80
2018-01-03T05:04:36.743Z,11.75
2018-01-03T05:06:29.596Z,11.95
2018-01-03T05:07:29.559Z,11.91
2018-01-03T05:09:22.391Z,11.91
2018-01-03T05:10:22.369Z,11.80
2018-01-03T05:12:15.257Z,11.94
2018-01-03T05:13:15.185Z,11.97
2018-01-03T05:15:08.019Z,12.00
2018-01-03T05:16:07.996Z,12.02
2018-01-03T05:18:00.842Z,12.09
2018-01-03T05:19:00.801Z,12.10
2018-01-03T05:20:53.632Z,12.24
2018-01-03T05:21:53.613Z,12.17
2018-01-03T05:23:46.461Z,12.28
2018-01-03T05:24:46.423Z,12.32
2018-01-03T05:26:39.253Z,12.35
2018-01-03T05:27:39.232Z,12.43
2018-01-03T05:29:32.076Z,12.49
2018-01-03T05:30:32.035Z,12.49
2018-01-03T05:32:24.866Z,12.65
2018-01-03T05:33:24.848Z,12.76
2018-01-03T05:35:17.694Z,12.78
2018-01-03T05:36:17.655Z,12.78
2018-01-03T05:38:10.484Z,12.94
2018-01-03T05:39:10.461Z,12.87
2018-01-03T05:41:03.308Z,13.03
2018-01-03T05:42:03.268Z,13.05
2018-01-03T05:43:56.103Z,13.19
2018-01-03T05:44:56.080Z,13.23
2018-01-03T05:46:48.923Z,13.19
2018-01-03T05:47:48.886Z,13.19
2018-01-03T05:49:41.717Z,13.19
2018-01-03T05:50:41.693Z,13.31
2018-01-03T05:52:34.539Z,13.25
2018-01-03T05:53:34.501Z,13.31
2018-01-03T05:55:27.328Z,13.20
2018-01-03T05:56:27.307Z,13.23
2018-01-03T05:58:20.158Z,12.95
2018-01-03T05:59:20.123Z,13.00
2018-01-03T06:01:12.951Z,12.72
2018-01-03T06:02:12.938Z,12.72
2018-01-03T06:04:05.783Z,12.65
2018-01-03T06:05:05.745Z,12.58
2018-01-03T06:06:58.571Z,12.46
2018-01-03T06:07:58.547Z,12.43
2018-01-03T06:09:51.399Z,12.37
2018-01-03T06:10:51.359Z,12.35
2018-01-03T06:12:44.190Z,12.35
2018-01-03T06:13:44.165Z,12.46
2018-01-03T06:15:37.024Z,12.47
2018-01-03T06:16:36.977Z,12.43
2018-01-03T06:18:29.808Z,12.42
2018-01-03T06:19:29.786Z,12.49
2018-01-03T06:21:22.640Z,12.55
2018-01-03T06:22:22.601Z,12.54
2018-01-03T06:24:15.428Z,12.47
2018-01-03T06:25:15.407Z,12.49
2018-01-03T06:27:08.254Z,12.46
2018-01-03T06:28:08.214Z,12.49
2018-01-03T06:30:01.049Z,12.64
2018-01-03T06:31:01.026Z,12.75
2018-01-03T06:32:53.873Z,12.37
2018-01-03T06:33:53.832Z,12.29
2018-01-03T06:35:46.665Z,12.21
2018-01-03T06:36:46.643Z,12.09
2018-01-03T06:38:39.492Z,12.20
2018-01-03T06:39:39.454Z,12.21
2018-01-03T06:41:32.282Z,12.09
2018-01-03T06:42:32.257Z,12.04
2018-01-03T06:44:25.106Z,11.75
2018-01-03T06:45:25.079Z,11.72
2018-01-03T06:47:17.905Z,11.65
2018-01-03T06:48:17.880Z,11.77
2018-01-03T06:50:10.737Z,11.52
2018-01-03T06:51:10.689Z,11.48
2018-01-03T06:53:03.516Z,11.54
2018-01-03T06:54:03.492Z,11.50
2018-01-03T06:55:56.352Z,11.37
2018-01-03T06:56:56.301Z,11.37
2018-01-03T06:58:49.227Z,11.33
2018-01-03T06:59:49.108Z,11.30
2018-01-03T07:01:41.951Z,11.04
2018-01-03T07:02:41.909Z,10.93
2018-01-03T07:04:34.739Z,10.68
2018-01-03T07:05:34.715Z,10.41
2018-01-03T07:07:27.564Z,10.30
2018-01-03T07:08:27.526Z,10.04
2018-01-03T07:10:20.352Z,9.89
2018-01-03T07:11:20.332Z,9.50
2018-01-03T07:13:13.184Z,9.34
2018-01-03T07:14:13.139Z,9.25
2018-01-03T07:16:05.963Z,9.11
2018-01-03T07:17:05.945Z,8.95
2018-01-03T07:18:58.785Z,8.97
2018-01-03T07:19:58.748Z,8.89
2018-01-03T07:21:51.581Z,8.81
2018-01-03T07:22:51.553Z,8.89
2018-01-03T07:24:44.397Z,8.79
2018-01-03T07:25:44.361Z,8.79
2018-01-03T07:27:37.186Z,8.66
2018-01-03T07:28:37.158Z,8.79
2018-01-03T07:30:30.009Z,8.76
2018-01-03T07:31:29.962Z,8.74
2018-01-03T07:33:22.798Z,8.70
2018-01-03T07:34:22.769Z,8.76
2018-01-03T07:36:15.608Z,8.91
2018-01-03T07:37:15.574Z,8.88
2018-01-03T07:39:08.398Z,8.89
2018-01-03T07:40:08.377Z,8.88
2018-01-03T07:42:01.218Z,8.87
2018-01-03T07:43:01.179Z,8.95
2018-01-03T07:44:54.010Z,8.97
2018-01-03T07:45:53.989Z,9.02
2018-01-03T07:47:46.831Z,8.94
2018-01-03T07:48:46.788Z,8.92
2018-01-03T07:50:39.621Z,8.91
2018-01-03T07:51:39.596Z,9.06
2018-01-03T07:53:32.438Z,9.04
2018-01-03T07:54:32.404Z,9.11
2018-01-03T07:56:25.234Z,9.00
2018-01-03T07:57:25.208Z,9.06
2018-01-03T07:59:18.049Z,9.00
2018-01-03T08:00:18.014Z,9.08
2018-01-03T08:02:10.835Z,9.00
2018-01-03T08:03:10.816Z,9.06
2018-01-03T08:05:03.659Z,9.08
2018-01-03T08:06:03.619Z,9.00
2018-01-03T08:07:56.444Z,9.13
2018-01-03T08:08:56.424Z,9.00
2018-01-03T08:10:49.266Z,9.16
2018-01-03T08:11:49.225Z,9.19
2018-01-03T08:13:42.054Z,9.06
2018-01-03T08:14:42.028Z,9.10
2018-01-03T08:16:34.879Z,9.06
2018-01-03T08:17:34.840Z,8.97
2018-01-03T08:19:27.668Z,9.10
2018-01-03T08:20:27.646Z,9.10
2018-01-03T08:22:20.486Z,9.13
2018-01-03T08:23:20.449Z,9.10
2018-01-03T08:25:13.275Z,9.16
2018-01-03T08:26:13.255Z,9.22
2018-01-03T08:28:06.100Z,9.21
2018-01-03T08:29:06.059Z,9.16
2018-01-03T08:30:58.935Z,9.22
2018-01-03T08:31:58.868Z,9.10
2018-01-03T08:33:51.711Z,9.18
2018-01-03T08:34:51.676Z,9.21
2018-01-03T08:36:44.502Z,9.22
2018-01-03T08:37:44.474Z,9.18
2018-01-03T08:39:37.328Z,9.13
2018-01-03T08:40:37.297Z,9.19
2018-01-03T08:42:30.117Z,9.16
2018-01-03T08:43:30.098Z,9.22
2018-01-03T08:45:22.940Z,9.18
2018-01-03T08:46:22.900Z,9.25
2018-01-03T08:48:15.722Z,9.19
2018-01-03T08:49:15.700Z,9.29
2018-01-03T08:51:08.549Z,9.25
2018-01-03T08:52:08.506Z,9.26
2018-01-03T08:54:01.336Z,9.18
2018-01-03T08:55:01.311Z,9.23
2018-01-03T08:56:54.156Z,9.03
2018-01-03T08:57:54.117Z,8.97
2018-01-03T08:59:46.943Z,8.94
2018-01-03T09:00:46.920Z,8.97
2018-01-03T09:02:39.761Z,8.92
2018-01-03T09:03:39.723Z,8.88
2018-01-03T09:05:32.556Z,8.74
2018-01-03T09:06:32.524Z,8.67
2018-01-03T09:08:25.370Z,8.63
2018-01-03T09:09:25.325Z,8.61
2018-01-03T09:11:19.149Z,8.63
2018-01-03T09:12:19.124Z,8.60
2018-01-03T09:14:11.965Z,8.51
2018-01-03T09:15:11.925Z,8.42
2018-01-03T09:17:04.761Z,8.55
2018-01-03T09:18:04.731Z,8.49
2018-01-03T09:19:57.585Z,8.44
2018-01-03T09:20:57.541Z,8.48
2018-01-03T09:22:50.366Z,8.49
2018-01-03T09:23:50.343Z,8.51
2018-01-03T09:25:43.182Z,8.49
2018-01-03T09:26:43.151Z,8.46
2018-01-03T09:28:35.979Z,8.52
2018-01-03T09:29:35.955Z,8.52
2018-01-03T09:31:28.802Z,8.44
2018-01-03T09:32:28.752Z,8.46
2018-01-03T09:34:21.586Z,8.31
2018-01-03T09:35:21.565Z,8.41
2018-01-03T09:37:14.409Z,8.31
2018-01-03T09:38:14.373Z,8.34
2018-01-03T09:40:07.198Z,8.28
2018-01-03T09:41:07.173Z,8.16
2018-01-03T09:43:00.013Z,8.19
2018-01-03T09:43:59.976Z,8.16
2018-01-03T09:45:52.802Z,8.20
2018-01-03T09:46:52.785Z,8.09
2018-01-03T09:48:45.620Z,8.19
2018-01-03T09:49:45.580Z,8.12
2018-01-03T09:51:38.409Z,8.03
2018-01-03T09:52:38.385Z,7.97
2018-01-03T09:54:31.222Z,8.00
2018-01-03T09:55:31.181Z,7.97
2018-01-03T09:57:24.010Z,7.79
2018-01-03T09:58:23.988Z,7.70
2018-01-03T10:00:16.828Z,7.82
2018-01-03T10:01:16.786Z,7.70
2018-01-03T10:03:09.613Z,7.61
2018-01-03T10:04:09.590Z,7.53
2018-01-03T10:06:02.433Z,7.56
2018-01-03T10:07:02.390Z,7.58
2018-01-03T10:08:55.219Z,7.60
2018-01-03T10:09:55.195Z,7.61
2018-01-03T10:11:48.035Z,7.61
2018-01-03T10:12:47.995Z,7.58
2018-01-03T10:14:40.826Z,7.61
2018-01-03T10:15:40.800Z,7.57
2018-01-03T10:17:33.675Z,7.63
2018-01-03T10:18:33.603Z,7.56
2018-01-03T10:20:26.426Z,7.60
2018-01-03T10:21:26.400Z,7.67
2018-01-03T10:23:19.843Z,7.69
2018-01-03T10:24:19.209Z,7.67
2018-01-03T10:26:12.036Z,7.66
2018-01-03T10:27:12.009Z,7.63
2018-01-03T10:29:04.852Z,7.60
2018-01-03T10:30:04.817Z,7.69
2018-01-03T10:31:57.645Z,7.56
2018-01-03T10:32:57.614Z,7.63
2018-01-03T10:34:50.476Z,7.63
2018-01-03T10:35:50.418Z,7.67
2018-01-03T10:37:43.271Z,7.66
2018-01-03T10:38:43.219Z,7.70
2018-01-03T10:40:36.057Z,7.70
2018-01-03T10:41:36.021Z,7.80
2018-01-03T10:43:28.840Z,7.70
2018-01-03T10:44:28.813Z,7.77
2018-01-03T10:46:21.660Z,7.88
2018-01-03T10:47:21.622Z,7.85
2018-01-03T10:49:14.446Z,7.82
2018-01-03T10:50:14.421Z,7.85
2018-01-03T10:52:07.266Z,7.95
2018-01-03T10:53:07.226Z,8.05
2018-01-03T10:55:00.052Z,7.98
2018-01-03T10:56:00.034Z,8.12
2018-01-03T10:57:52.869Z,8.13
2018-01-03T10:58:52.827Z,8.15
2018-01-03T11:00:45.673Z,8.20
2018-01-03T11:01:45.643Z,8.20
2018-01-03T11:03:38.488Z,8.18
2018-01-03T11:04:38.451Z,8.23
2018-01-03T11:06:31.284Z,8.19
2018-01-03T11:07:31.257Z,8.19
2018-01-03T11:09:24.105Z,8.23
2018-01-03T11:10:24.065Z,8.16
2018-01-03T11:12:16.896Z,8.27
2018-01-03T11:13:16.873Z,8.20
2018-01-03T11:15:09.716Z,8.31
2018-01-03T11:16:09.675Z,8.34
2018-01-03T11:18:02.502Z,8.55
2018-01-03T11:19:02.475Z,8.55
2018-01-03T11:20:55.326Z,8.73
2018-01-03T11:21:55.274Z,8.74
2018-01-03T11:23:48.110Z,8.74
2018-01-03T11:24:48.080Z,8.69
2018-01-03T11:26:40.927Z,8.92
2018-01-03T11:27:40.886Z,8.87
2018-01-03T11:29:33.717Z,8.87
2018-01-03T11:30:33.698Z,8.92
2018-01-03T11:32:26.533Z,8.92
2018-01-03T11:33:26.488Z,9.06
2018-01-03T11:35:19.313Z,8.91
2018-01-03T11:36:19.290Z,9.06
2018-01-03T11:38:12.130Z,9.04
2018-01-03T11:39:12.087Z,9.00
2018-01-03T11:41:04.915Z,9.16
2018-01-03T11:42:04.887Z,9.18
2018-01-03T11:43:57.734Z,9.23
2018-01-03T11:44:57.695Z,9.23
2018-01-03T11:46:50.524Z,9.28
2018-01-03T11:47:50.501Z,9.32
2018-01-03T11:49:43.352Z,9.37
2018-01-03T11:50:43.303Z,9.34
2018-01-03T11:52:36.129Z,9.23
2018-01-03T11:53:36.103Z,9.22
2018-01-03T11:55:28.950Z,8.84
2018-01-03T11:56:28.910Z,8.84
2018-01-03T11:58:21.732Z,8.69
2018-01-03T11:59:21.708Z,8.71
2018-01-03T12:01:14.556Z,8.61
2018-01-03T12:02:14.518Z,8.67
2018-01-03T12:04:07.350Z,8.82
2018-01-03T12:05:07.327Z,8.71
2018-01-03T12:07:00.175Z,8.87
2018-01-03T12:08:00.127Z,8.91
2018-01-03T12:09:52.954Z,9.00
2018-01-03T12:10:52.928Z,8.97
2018-01-03T12:12:45.763Z,8.97
2018-01-03T12:13:45.731Z,8.97
2018-01-03T12:15:38.558Z,8.94
2018-01-03T12:16:38.529Z,8.92
2018-01-03T12:18:31.373Z,8.94
2018-01-03T12:19:31.336Z,9.00
2018-01-03T12:21:24.161Z,8.95
2018-01-03T12:22:24.137Z,8.99
2018-01-03T12:24:16.982Z,9.08
2018-01-03T12:25:16.940Z,9.72
2018-01-03T12:27:09.764Z,9.64
2018-01-03T12:28:09.739Z,9.06
2018-01-03T12:30:02.576Z,8.51
2018-01-03T12:31:02.538Z,8.44
2018-01-03T12:32:55.367Z,8.34
2018-01-03T12:33:55.344Z,8.34
2018-01-03T12:35:48.184Z,8.10
2018-01-03T12:36:48.144Z,8.03
2018-01-03T12:38:40.974Z,7.75
2018-01-03T12:39:40.946Z,7.51
2018-01-03T12:41:33.793Z,7.23
2018-01-03T12:42:33.753Z,7.28
2018-01-03T12:44:26.586Z,6.92
2018-01-03T12:45:26.560Z,6.95
2018-01-03T12:47:19.404Z,6.95
2018-01-03T12:48:19.360Z,7.03
2018-01-03T12:50:12.187Z,7.06
2018-01-03T12:51:12.159Z,7.13
2018-01-03T12:53:05.004Z,7.15
2018-01-03T12:54:04.964Z,7.15
2018-01-03T12:55:57.792Z,7.24
2018-01-03T12:56:57.764Z,7.24
2018-01-03T12:58:50.608Z,7.24
2018-01-03T12:59:50.565Z,7.36
2018-01-03T13:01:43.395Z,7.36
2018-01-03T13:02:43.371Z,7.43
2018-01-03T13:04:36.216Z,7.35
2018-01-03T13:05:36.190Z,7.38
2018-01-03T13:07:29.004Z,7.29
2018-01-03T13:08:28.978Z,7.25
2018-01-03T13:10:21.818Z,7.31
2018-01-03T13:11:21.778Z,7.33
2018-01-03T13:13:14.609Z,7.50
2018-01-03T13:14:14.584Z,7.47
2018-01-03T13:16:07.421Z,7.53
2018-01-03T13:17:07.379Z,7.63
2018-01-03T13:19:00.212Z,7.72
2018-01-03T13:20:00.181Z,7.73
2018-01-03T13:21:53.035Z,7.85
2018-01-03T13:22:52.983Z,7.94
2018-01-03T13:24:45.811Z,8.08
2018-01-03T13:25:45.790Z,8.27
2018-01-03T13:27:38.629Z,8.28
2018-01-03T13:28:38.587Z,8.49
2018-01-03T13:30:31.417Z,8.46
2018-01-03T13:31:31.395Z,8.51
2018-01-03T13:33:24.240Z,8.66
2018-01-03T13:34:24.194Z,8.85
2018-01-03T13:36:17.026Z,8.94
2018-01-03T13:37:16.998Z,9.02
2018-01-03T13:39:09.833Z,9.04
2018-01-03T13:40:09.795Z,9.10
2018-01-03T13:42:02.626Z,9.21
2018-01-03T13:43:02.604Z,9.23
2018-01-03T13:44:55.443Z,9.22
2018-01-03T13:45:55.401Z,9.31
2018-01-03T13:47:48.233Z,9.44
2018-01-03T13:48:48.222Z,9.46
2018-01-03T13:50:41.047Z,9.56
2018-01-03T13:51:41.006Z,9.51
2018-01-03T13:53:33.840Z,9.54
2018-01-03T13:54:33.817Z,9.54
2018-01-03T13:56:26.658Z,9.54
2018-01-03T13:57:26.617Z,9.55
2018-01-03T13:59:19.446Z,9.54
2018-01-03T14:00:19.423Z,9.66
2018-01-03T14:02:12.256Z,9.72
2018-01-03T14:03:12.216Z,9.74
2018-01-03T14:05:05.045Z,9.87
2018-01-03T14:06:05.019Z,9.91
2018-01-03T14:07:57.859Z,9.82
2018-01-03T14:08:57.813Z,9.95
2018-01-03T14:10:50.640Z,9.97
2018-01-03T14:11:50.615Z,10.01
2018-01-03T14:13:43.454Z,9.94
2018-01-03T14:14:43.418Z,9.84
2018-01-03T14:16:36.246Z,9.99
2018-01-03T14:17:36.222Z,9.94
2018-01-03T14:19:29.061Z,9.97
2018-01-03T14:20:29.021Z,9.98
2018-01-03T14:22:21.856Z,9.97
2018-01-03T14:23:21.832Z,10.02
2018-01-03T14:25:14.676Z,10.01
2018-01-03T14:26:14.642Z,10.10
2018-01-03T14:28:07.462Z,10.02
2018-01-03T14:29:07.440Z,10.01
2018-01-03T14:31:00.283Z,9.95
2018-01-03T14:32:00.242Z,9.89
2018-01-03T14:33:53.077Z,9.79
2018-01-03T14:34:53.048Z,9.87
2018-01-03T14:36:45.890Z,9.73
2018-01-03T14:37:45.849Z,9.74
2018-01-03T14:39:38.676Z,9.69
2018-01-03T14:40:38.650Z,9.62
2018-01-03T14:42:31.488Z,9.56
2018-01-03T14:43:31.449Z,9.43
2018-01-03T14:45:24.273Z,9.46
2018-01-03T14:46:24.249Z,9.34
2018-01-03T14:48:17.097Z,9.25
2018-01-03T14:49:17.056Z,9.13
2018-01-03T14:51:09.885Z,9.11
2018-01-03T14:52:09.861Z,9.00
2018-01-03T14:54:02.710Z,8.99
2018-01-03T14:55:02.668Z,8.99
2018-01-03T14:56:56.487Z,9.02
2018-01-03T14:57:56.464Z,9.00
2018-01-03T14:59:49.305Z,9.00
2018-01-03T15:00:49.268Z,9.02
2018-01-03T15:02:42.090Z,9.16
2018-01-03T15:03:42.069Z,9.22
2018-01-03T15:05:34.909Z,9.19
2018-01-03T15:06:34.872Z,9.28
2018-01-03T15:08:27.700Z,9.37
2018-01-03T15:09:27.672Z,9.29
2018-01-03T15:11:20.515Z,9.34
2018-01-03T15:12:20.473Z,9.29
2018-01-03T15:14:13.298Z,9.28
2018-01-03T15:15:13.279Z,9.34
2018-01-03T15:17:06.120Z,9.31
2018-01-03T15:18:06.080Z,9.25
2018-01-03T15:19:58.904Z,9.37
2018-01-03T15:20:58.881Z,9.26
2018-01-03T15:22:51.733Z,9.37
2018-01-03T15:23:51.685Z,9.25
2018-01-03T15:25:44.513Z,9.28
2018-01-03T15:26:44.483Z,9.36
2018-01-03T15:28:37.328Z,9.21
2018-01-03T15:29:37.288Z,9.16
2018-01-03T15:31:30.115Z,9.18
2018-01-03T15:32:30.087Z,9.14
2018-01-03T15:34:22.932Z,9.21
2018-01-03T15:35:22.893Z,9.22
2018-01-03T15:37:15.723Z,9.25
2018-01-03T15:38:15.699Z,9.18
2018-01-03T15:40:08.539Z,9.19
2018-01-03T15:41:08.501Z,9.06
2018-01-03T15:43:01.327Z,9.04
2018-01-03T15:44:01.303Z,8.94
2018-01-03T15:45:54.153Z,8.95
2018-01-03T15:46:54.107Z,8.99
2018-01-03T15:48:46.940Z,8.95
2018-01-03T15:49:46.919Z,8.91
2018-01-03T15:51:39.758Z,8.85
2018-01-03T15:52:39.720Z,8.82
2018-01-03T15:54:32.541Z,8.87
2018-01-03T15:55:32.522Z,8.89
2018-01-03T15:57:25.358Z,8.73
2018-01-03T15:58:25.320Z,8.70
2018-01-03T16:00:18.146Z,8.71
2018-01-03T16:01:18.128Z,8.85
2018-01-03T16:03:10.972Z,8.81
2018-01-03T16:04:10.933Z,8.84
2018-01-03T16:06:03.767Z,8.81
2018-01-03T16:07:03.733Z,8.82
2018-01-03T16:08:56.581Z,8.87
2018-01-03T16:09:56.543Z,8.82
2018-01-03T16:11:49.370Z,8.81
2018-01-03T16:12:49.342Z,8.85
2018-01-03T16:14:42.188Z,8.73
2018-01-03T16:15:42.159Z,8.85
2018-01-03T16:17:34.977Z,8.89
2018-01-03T16:18:34.951Z,8.95
2018-01-03T16:20:27.792Z,8.95
2018-01-03T16:21:27.751Z,8.91
2018-01-03T16:23:20.573Z,8.94
2018-01-03T16:24:20.552Z,9.02
2018-01-03T16:26:13.409Z,9.13
2018-01-03T16:27:13.355Z,9.11
2018-01-03T16:29:06.183Z,9.08
2018-01-03T16:30:06.160Z,9.11
2018-01-03T16:31:59.000Z,9.18
2018-01-03T16:32:58.959Z,9.21
2018-01-03T16:34:51.781Z,9.29
2018-01-03T16:35:51.757Z,9.21
2018-01-03T16:37:44.599Z,9.29
2018-01-03T16:38:44.555Z,9.31
2018-01-03T16:40:37.389Z,9.37
2018-01-03T16:41:37.360Z,9.44
2018-01-03T16:43:30.198Z,9.41
2018-01-03T16:44:30.158Z,9.41
2018-01-03T16:46:22.980Z,9.46
2018-01-03T16:47:22.958Z,9.39
2018-01-03T16:49:15.796Z,9.46
2018-01-03T16:50:15.760Z,9.43
2018-01-03T16:52:08.583Z,9.39
2018-01-03T16:53:08.558Z,9.41
2018-01-03T16:55:01.392Z,9.46
2018-01-03T16:56:01.357Z,9.44
2018-01-03T16:57:54.179Z,9.43
2018-01-03T16:58:54.152Z,9.50
2018-01-03T17:00:46.993Z,9.44
2018-01-03T17:01:46.955Z,9.47
2018-01-03T17:03:39.780Z,9.46
2018-01-03T17:04:39.760Z,9.39
2018-01-03T17:06:32.594Z,9.43
2018-01-03T17:07:32.555Z,9.44
2018-01-03T17:09:25.380Z,9.43
2018-01-03T17:10:25.353Z,9.37
2018-01-03T17:12:18.192Z,9.36
2018-01-03T17:13:18.155Z,9.36
2018-01-03T17:15:10.986Z,9.40
2018-01-03T17:16:10.960Z,9.31
2018-01-03T17:18:03.803Z,9.31
2018-01-03T17:19:03.763Z,9.29
2018-01-03T17:20:56.585Z,9.25
2018-01-03T17:21:56.564Z,9.26
2018-01-03T17:23:49.405Z,9.19
2018-01-03T17:24:49.368Z,9.19
2018-01-03T17:26:42.194Z,9.18
2018-01-03T17:27:42.170Z,9.19
2018-01-03T17:29:35.008Z,9.21
2018-01-03T17:30:34.968Z,9.18
2018-01-03T17:32:27.796Z,9.13
2018-01-03T17:33:27.767Z,9.16
2018-01-03T17:35:20.621Z,9.16
2018-01-03T17:36:20.570Z,9.22
2018-01-03T17:38:13.413Z,9.16
2018-01-03T17:39:13.396Z,9.19
2018-01-03T17:41:06.238Z,9.16
2018-01-03T17:42:06.194Z,9.08
2018-01-03T17:43:59.022Z,9.10
2018-01-03T17:44:58.999Z,9.02
2018-01-03T17:46:51.839Z,9.00
2018-01-03T17:47:51.800Z,8.99
2018-01-03T17:49:44.632Z,9.00
2018-01-03T17:50:44.604Z,9.02
2018-01-03T17:52:37.448Z,9.02
2018-01-03T17:53:37.405Z,9.02
2018-01-03T17:55:30.235Z,8.92
2018-01-03T17:56:30.210Z,8.99
2018-01-03T17:58:23.055Z,8.97
2018-01-03T17:59:23.015Z,9.03
2018-01-03T18:01:15.842Z,9.02
2018-01-03T18:02:15.817Z,8.99
2018-01-03T18:04:08.658Z,9.00
2018-01-03T18:05:08.617Z,8.94
2018-01-03T18:07:01.450Z,9.00
2018-01-03T18:08:01.426Z,9.00
2018-01-03T18:09:54.272Z,8.94
2018-01-03T18:10:54.227Z,9.08
2018-01-03T18:12:47.058Z,8.88
2018-01-03T18:13:47.037Z,8.94
2018-01-03T18:15:39.886Z,9.02
2018-01-03T18:16:39.844Z,9.00
2018-01-03T18:18:32.669Z,9.03
2018-01-03T18:19:32.645Z,8.97
2018-01-03T18:21:25.485Z,8.92
2018-01-03T18:22:25.450Z,8.94
2018-01-03T18:24:18.266Z,8.81
2018-01-03T18:25:18.246Z,8.89
2018-01-03T18:27:11.093Z,8.91
2018-01-03T18:28:11.053Z,8.88
2018-01-03T18:30:03.879Z,8.84
2018-01-03T18:31:03.853Z,8.87
2018-01-03T18:32:56.692Z,8.88
2018-01-03T18:33:56.648Z,8.85
2018-01-03T18:35:49.492Z,8.84
2018-01-03T18:36:49.448Z,8.78
2018-01-03T18:38:42.293Z,8.76
2018-01-03T18:39:42.249Z,8.79
2018-01-03T18:41:35.071Z,8.61
2018-01-03T18:42:35.049Z,8.66
2018-01-03T18:44:27.905Z,8.66
2018-01-03T18:45:27.854Z,8.61
2018-01-03T18:47:20.690Z,8.66
2018-01-03T18:48:20.663Z,8.61
2018-01-03T18:50:13.501Z,8.71
2018-01-03T18:51:13.459Z,8.67
2018-01-03T18:53:06.286Z,8.67
2018-01-03T18:54:06.259Z,8.67
2018-01-03T18:55:59.106Z,8.70
2018-01-03T18:56:59.066Z,8.76
2018-01-03T18:58:51.888Z,8.82